Time;durP1;ratioP1;P1;durP2;ratioP2;P2;SDS_P1;SDS_P2;PMS_P1;PMS_P2;Temp;Humidity;BMP_temperature;BMP_pressure;BME280_temperature;BME280_humidity;BME280_pressure;Samples;Min_cycle;Max_cycle;Signal;HPM_P1;HPM_P2
2023/02/17 00:05:26;;;;;;;;;85.67;68.33;;;;;;;;6487583;39;8935;-58
2023/02/17 00:11:28;;;;;;;;;81.33;63.33;;;;;;;;6487900;39;8870;-59
2023/02/17 00:17:30;;;;;;;;;79.00;61.67;;;;;;;;6487881;31;8876;-59
2023/02/17 00:23:33;;;;;;;;;79.00;64.67;;;;;;;;6488871;39;8935;-59
2023/02/17 00:29:36;;;;;;;;;86.33;67.33;;;;;;;;6488464;31;9622;-58
2023/02/17 00:35:39;;;;;;;;;81.67;66.00;;;;;;;;6486602;46;8869;-58
2023/02/17 00:41:43;;;;;;;;;79.00;65.67;;;;;;;;6487292;39;9009;-58
2023/02/17 00:47:45;;;;;;;;;81.33;64.00;;;;;;;;6486813;46;8970;-58
2023/02/17 00:53:51;;;;;;;;;88.00;68.33;;;;;;;;6487552;39;8945;-60
2023/02/17 00:59:55;;;;;;;;;83.33;67.00;;;;;;;;6487389;39;8916;-59
2023/02/17 01:06:06;;;;;;;;;90.00;72.00;;;;;;;;6486810;31;8945;-61
2023/02/17 01:12:11;;;;;;;;;97.00;70.67;;;;;;;;6487086;46;8944;-58
2023/02/17 01:18:18;;;;;;;;;85.67;69.67;;;;;;;;6306068;39;9999858;-59
2023/02/17 01:24:20;;;;;;;;;94.00;72.00;;;;;;;;6487059;39;8856;-58
2023/02/17 01:30:22;;;;;;;;;92.33;69.00;;;;;;;;6486913;39;8980;-60
2023/02/17 01:36:25;;;;;;;;;100.67;73.00;;;;;;;;6487226;31;8877;-58
2023/02/17 01:42:29;;;;;;;;;95.33;73.67;;;;;;;;6487019;39;8899;-59
2023/02/17 01:48:40;;;;;;;;;87.33;68.67;;;;;;;;6486238;39;8893;-59
2023/02/17 01:54:47;;;;;;;;;84.00;65.33;;;;;;;;6486832;39;9688;-58
2023/02/17 02:00:52;;;;;;;;;92.33;70.33;;;;;;;;6487372;39;8920;-59
2023/02/17 02:06:54;;;;;;;;;92.33;68.67;;;;;;;;6486725;47;9022;-59
2023/02/17 02:12:56;;;;;;;;;92.67;71.67;;;;;;;;6486603;39;8960;-59
2023/02/17 02:19:14;;;;;;;;;88.33;68.67;;;;;;;;6486989;31;8941;-58
2023/02/17 02:25:43;;;;;;;;;91.33;70.67;;;;;;;;6486131;39;8927;-58
2023/02/17 02:31:54;;;;;;;;;98.50;73.50;;;;;;;;6486897;39;8886;-58
2023/02/17 02:38:15;;;;;;;;;91.67;72.33;;;;;;;;6487922;39;8916;-58
2023/02/17 02:44:20;;;;;;;;;88.67;69.33;;;;;;;;6488357;31;8969;-58
2023/02/17 02:50:44;;;;;;;;;93.33;72.67;;;;;;;;6488951;31;8960;-59
2023/02/17 02:57:01;;;;;;;;;94.00;72.00;;;;;;;;6487926;39;8874;-59
2023/02/17 03:03:27;;;;;;;;;99.33;77.00;;;;;;;;6487790;46;8917;-59
2023/02/17 03:09:30;;;;;;;;;89.33;67.00;;;;;;;;6490132;36;8977;-59
2023/02/17 03:15:34;;;;;;;;;96.67;74.33;;;;;;;;6488900;31;9140;-61
2023/02/17 03:21:42;;;;;;;;;94.33;74.67;;;;;;;;6487795;39;8947;-58
2023/02/17 03:27:44;;;;;;;;;97.67;74.33;;;;;;;;6488658;39;8968;-59
2023/02/17 03:33:48;;;;;;;;;94.33;73.67;;;;;;;;6488528;31;9678;-58
2023/02/17 03:39:50;;;;;;;;;93.00;72.00;;;;;;;;6485699;46;9084;-60
2023/02/17 03:45:53;;;;;;;;;96.67;76.00;;;;;;;;6492124;39;8911;-58
2023/02/17 03:51:57;;;;;;;;;99.67;74.33;;;;;;;;6491343;46;8923;-59
2023/02/17 03:57:59;;;;;;;;;96.00;73.67;;;;;;;;6491356;39;9000;-58
2023/02/17 04:04:01;;;;;;;;;92.33;73.00;;;;;;;;6491915;39;8930;-58
2023/02/17 04:10:06;;;;;;;;;96.33;76.00;;;;;;;;6492017;39;8903;-58
2023/02/17 04:16:12;;;;;;;;;93.00;70.33;;;;;;;;6491618;46;8883;-59
2023/02/17 04:22:14;;;;;;;;;90.00;68.33;;;;;;;;6491471;39;9043;-59
2023/02/17 04:28:17;;;;;;;;;94.00;72.33;;;;;;;;6491989;39;8880;-57
2023/02/17 04:34:22;;;;;;;;;101.00;75.00;;;;;;;;6490787;31;8992;-58
2023/02/17 04:40:25;;;;;;;;;93.00;69.33;;;;;;;;6491391;39;8941;-59
2023/02/17 04:46:30;;;;;;;;;93.33;74.33;;;;;;;;6490328;46;8916;-59
2023/02/17 04:52:32;;;;;;;;;97.67;75.00;;;;;;;;6491334;39;8943;-58
2023/02/17 04:58:35;;;;;;;;;98.33;75.00;;;;;;;;6491091;39;8865;-58
2023/02/17 05:04:47;;;;;;;;;99.67;77.33;;;;;;;;6471140;39;9042;-58
2023/02/17 05:11:28;;;;;;;;;90.33;71.33;;;;;;;;6491648;39;8869;-59
2023/02/17 05:18:10;;;;;;;;;99.67;74.33;;;;;;;;6489436;46;8950;-58
2023/02/17 05:24:59;;;;;;;;;92.33;74.33;;;;;;;;6490820;39;8913;-59
2023/02/17 05:32:28;;;;;;;;;97.00;73.67;;;;;;;;6488084;46;9067;-60
2023/02/17 05:38:45;;;;;;;;;94.67;75.00;;;;;;;;6489547;39;9547;-60
2023/02/17 05:52:47;;;;;;;;;101.67;76.67;;;;;;;;6489366;47;8964;-61
2023/02/17 05:59:27;;;;;;;;;95.33;73.00;;;;;;;;6490095;39;9067;-60
2023/02/17 06:05:57;;;;;;;;;93.67;72.67;;;;;;;;6489004;39;9564;-58
2023/02/17 06:19:01;;;;;;;;;102.00;79.67;;;;;;;;6487176;31;8907;-60
2023/02/17 06:25:22;;;;;;;;;104.33;76.67;;;;;;;;6487504;39;8982;-59
2023/02/17 06:31:50;;;;;;;;;102.00;78.67;;;;;;;;6486225;39;9066;-59
2023/02/17 06:37:58;;;;;;;;;105.00;82.00;;;;;;;;6489104;39;8896;-59
2023/02/17 06:44:15;;;;;;;;;100.67;74.33;;;;;;;;6486978;31;9055;-60
2023/02/17 06:50:25;;;;;;;;;103.33;80.00;;;;;;;;6487631;31;8917;-59
2023/02/17 06:56:46;;;;;;;;;96.00;73.00;;;;;;;;6486794;39;8867;-61
2023/02/17 07:02:51;;;;;;;;;99.67;76.67;;;;;;;;6487427;31;8920;-61
2023/02/17 07:08:54;;;;;;;;;100.00;78.00;;;;;;;;6487081;31;8935;-60
2023/02/17 07:15:01;;;;;;;;;97.67;76.67;;;;;;;;6486687;46;8920;-60
2023/02/17 07:21:27;;;;;;;;;100.33;76.00;;;;;;;;6487070;39;8919;-62
2023/02/17 07:27:58;;;;;;;;;111.00;87.67;;;;;;;;6486340;39;8920;-63
2023/02/17 07:34:51;;;;;;;;;103.00;77.00;;;;;;;;6486048;46;8924;-59
2023/02/17 07:49:21;;;;;;;;;107.00;79.67;;;;;;;;6485906;31;8975;-59
2023/02/17 07:55:43;;;;;;;;;98.33;75.67;;;;;;;;6485596;46;8841;-59
2023/02/17 08:02:12;;;;;;;;;110.33;88.00;;;;;;;;6483063;31;9550;-60
2023/02/17 08:15:46;;;;;;;;;101.33;82.67;;;;;;;;6484669;39;8900;-60
2023/02/17 08:22:11;;;;;;;;;104.67;89.33;;;;;;;;6485289;31;8872;-59
2023/02/17 08:28:22;;;;;;;;;105.00;86.67;;;;;;;;6485916;39;8998;-63
2023/02/17 08:35:09;;;;;;;;;101.00;86.00;;;;;;;;6485001;39;9404;-62
2023/02/17 08:42:10;;;;;;;;;103.00;89.00;;;;;;;;6485177;39;8931;-60
2023/02/17 08:48:25;;;;;;;;;102.00;86.67;;;;;;;;6485086;31;8928;-59
2023/02/17 08:54:51;;;;;;;;;107.00;89.33;;;;;;;;6484187;39;8951;-61
2023/02/17 09:01:25;;;;;;;;;105.67;89.33;;;;;;;;6486134;39;8928;-60
2023/02/17 09:07:31;;;;;;;;;107.67;92.00;;;;;;;;6484523;46;8955;-60
2023/02/17 09:14:29;;;;;;;;;107.33;80.33;;;;;;;;6486336;39;8957;-60
2023/02/17 09:21:13;;;;;;;;;105.33;93.33;;;;;;;;6484858;31;9038;-60
2023/02/17 09:28:12;;;;;;;;;116.00;98.00;;;;;;;;6486047;31;8961;-61
2023/02/17 09:42:00;;;;;;;;;103.67;88.00;;;;;;;;6485612;39;9011;-60
2023/02/17 09:48:49;;;;;;;;;102.00;87.00;;;;;;;;6485562;39;9752;-62
2023/02/17 09:55:28;;;;;;;;;98.50;81.00;;;;;;;;6485159;39;8948;-61
2023/02/17 10:02:54;;;;;;;;;101.25;85.25;;;;;;;;6484864;47;9009;-61
2023/02/17 10:09:48;;;;;;;;;101.50;81.75;;;;;;;;6484537;31;9582;-60
2023/02/17 10:16:41;;;;;;;;;93.25;74.50;;;;;;;;6483700;39;9028;-61
2023/02/17 10:23:23;;;;;;;;;99.25;84.25;;;;;;;;6485379;47;8877;-61
2023/02/17 10:30:14;;;;;;;;;94.00;76.75;;;;;;;;6484977;39;8943;-63
2023/02/17 10:37:30;;;;;;;;;87.25;70.50;;;;;;;;6481309;47;8931;-60
2023/02/17 10:44:22;;;;;;;;;95.75;75.00;;;;;;;;6481555;31;8986;-61
2023/02/17 10:51:26;;;;;;;;;100.50;87.00;;;;;;;;6481810;39;8931;-61
2023/02/17 10:59:13;;;;;;;;;91.25;70.00;;;;;;;;6482617;46;8926;-61
2023/02/17 11:05:52;;;;;;;;;97.00;78.50;;;;;;;;6483687;39;8965;-62
2023/02/17 11:19:46;;;;;;;;;87.75;72.50;;;;;;;;6485568;31;8910;-62
2023/02/17 11:26:33;;;;;;;;;90.50;74.75;;;;;;;;6486624;39;9077;-62
2023/02/17 11:33:36;;;;;;;;;91.00;71.50;;;;;;;;6485926;39;9011;-62
2023/02/17 11:40:26;;;;;;;;;91.25;74.50;;;;;;;;6486602;31;8925;-60
2023/02/17 11:47:28;;;;;;;;;89.25;72.50;;;;;;;;6486054;46;8921;-60
2023/02/17 11:54:28;;;;;;;;;84.25;67.50;;;;;;;;6485565;39;8932;-61
2023/02/17 12:01:39;;;;;;;;;85.75;69.25;;;;;;;;6485438;39;9589;-62
2023/02/17 12:08:47;;;;;;;;;90.00;70.50;;;;;;;;6486245;46;8895;-62
2023/02/17 12:15:33;;;;;;;;;87.00;68.25;;;;;;;;6484880;31;8951;-61
2023/02/17 12:22:27;;;;;;;;;83.25;65.50;;;;;;;;6486908;39;9465;-63
2023/02/17 12:29:41;;;;;;;;;79.75;63.00;;;;;;;;6486931;39;8860;-62
2023/02/17 12:36:53;;;;;;;;;80.75;58.75;;;;;;;;6489269;36;8843;-62
2023/02/17 12:43:31;;;;;;;;;82.25;63.25;;;;;;;;6487730;39;8876;-63
2023/02/17 12:51:05;;;;;;;;;72.50;59.50;;;;;;;;6486439;39;9020;-62
2023/02/17 12:58:25;;;;;;;;;77.00;60.50;;;;;;;;6484522;39;8900;-64
2023/02/17 13:11:46;;;;;;;;;74.50;58.75;;;;;;;;6485609;46;8940;-63
2023/02/17 13:24:56;;;;;;;;;71.25;57.50;;;;;;;;6486022;39;9547;-59
2023/02/17 13:32:17;;;;;;;;;75.50;58.75;;;;;;;;6485719;31;9064;-60
2023/02/17 13:39:48;;;;;;;;;68.00;54.75;;;;;;;;6485981;39;8884;-60
2023/02/17 13:52:22;;;;;;;;;67.75;55.00;;;;;;;;6486001;31;9622;-60
2023/02/17 13:58:57;;;;;;;;;60.00;49.75;;;;;;;;6305363;31;10000383;-59
2023/02/17 14:05:36;;;;;;;;;58.25;48.00;;;;;;;;6485570;31;8920;-62
2023/02/17 14:11:55;;;;;;;;;57.75;45.00;;;;;;;;6485213;39;9063;-58
2023/02/17 14:18:15;;;;;;;;;45.50;42.00;;;;;;;;6486510;39;8851;-60
2023/02/17 14:24:37;;;;;;;;;59.33;48.33;;;;;;;;6484999;46;8892;-60
2023/02/17 14:30:57;;;;;;;;;61.75;50.50;;;;;;;;6482772;31;8943;-61
2023/02/17 14:37:22;;;;;;;;;64.00;51.00;;;;;;;;6484742;39;8916;-61
2023/02/17 14:43:55;;;;;;;;;60.75;48.00;;;;;;;;6487792;31;8893;-60
2023/02/17 14:50:15;;;;;;;;;64.50;50.50;;;;;;;;6487546;31;9547;-61
2023/02/17 14:57:12;;;;;;;;;57.25;46.75;;;;;;;;6487865;31;8906;-59
2023/02/17 15:04:12;;;;;;;;;53.75;44.50;;;;;;;;6509559;31;8974;-59
2023/02/17 15:17:45;;;;;;;;;54.75;46.25;;;;;;;;6486910;46;8912;-60
2023/02/17 15:37:40;;;;;;;;;61.75;50.25;;;;;;;;6486807;39;8980;-59
2023/02/17 15:43:56;;;;;;;;;64.75;52.25;;;;;;;;6486513;31;8900;-61
2023/02/17 15:50:28;;;;;;;;;64.75;53.75;;;;;;;;6486594;39;9729;-61
2023/02/17 15:57:24;;;;;;;;;64.75;50.75;;;;;;;;6487319;46;8915;-60
2023/02/17 16:03:54;;;;;;;;;66.33;50.67;;;;;;;;6485932;31;8961;-60
2023/02/17 16:10:32;;;;;;;;;71.75;58.00;;;;;;;;6488019;31;8975;-59
2023/02/17 16:17:16;;;;;;;;;72.75;56.25;;;;;;;;6486047;31;8909;-59
2023/02/17 16:24:10;;;;;;;;;71.50;55.75;;;;;;;;6486786;31;8927;-60
2023/02/17 16:30:33;;;;;;;;;80.25;59.75;;;;;;;;6485724;46;9024;-59
2023/02/17 16:37:10;;;;;;;;;77.50;61.00;;;;;;;;6485950;46;9017;-59
2023/02/17 16:43:35;;;;;;;;;73.25;58.50;;;;;;;;6486221;39;8980;-59
2023/02/17 16:49:52;;;;;;;;;80.25;62.00;;;;;;;;6487336;39;8880;-60
2023/02/17 16:56:15;;;;;;;;;82.25;64.00;;;;;;;;6485763;39;8976;-58
2023/02/17 17:02:28;;;;;;;;;89.25;68.25;;;;;;;;6486498;31;9673;-59
2023/02/17 17:08:50;;;;;;;;;88.25;68.25;;;;;;;;6486255;31;9037;-61
2023/02/17 17:15:10;;;;;;;;;87.75;66.75;;;;;;;;6487495;39;8952;-58
2023/02/17 17:21:26;;;;;;;;;84.50;65.00;;;;;;;;6486482;31;9026;-59
2023/02/17 17:27:38;;;;;;;;;85.75;67.50;;;;;;;;6487552;31;8889;-60
2023/02/17 17:34:02;;;;;;;;;86.50;68.25;;;;;;;;6486798;39;8931;-60
2023/02/17 17:40:49;;;;;;;;;82.50;67.00;;;;;;;;6485763;39;8884;-59
2023/02/17 17:47:22;;;;;;;;;85.75;67.75;;;;;;;;6486097;39;8918;-59
2023/02/17 17:54:13;;;;;;;;;88.25;67.00;;;;;;;;6486740;31;8928;-61
2023/02/17 18:00:36;;;;;;;;;85.75;67.50;;;;;;;;6486534;39;8923;-60
2023/02/17 18:13:38;;;;;;;;;85.75;67.25;;;;;;;;6487041;39;10427;-60
2023/02/17 18:20:21;;;;;;;;;84.75;66.50;;;;;;;;6487812;46;8953;-60
2023/02/17 18:26:46;;;;;;;;;78.00;60.25;;;;;;;;6487443;39;8907;-61
2023/02/17 18:33:23;;;;;;;;;78.75;64.50;;;;;;;;6488291;31;8924;-60
2023/02/17 18:40:15;;;;;;;;;79.00;63.00;;;;;;;;6488264;39;9090;-58
2023/02/17 18:46:47;;;;;;;;;79.25;61.50;;;;;;;;6487621;31;8905;-59
2023/02/17 18:53:27;;;;;;;;;86.00;67.75;;;;;;;;6487767;46;9030;-58
2023/02/17 18:59:55;;;;;;;;;80.00;62.50;;;;;;;;6487094;46;8941;-58
2023/02/17 19:12:46;;;;;;;;;74.25;60.00;;;;;;;;6487783;39;8971;-59
2023/02/17 19:19:05;;;;;;;;;71.50;57.25;;;;;;;;6486807;39;8891;-58
2023/02/17 19:26:14;;;;;;;;;75.50;58.75;;;;;;;;6487457;39;8949;-59
2023/02/17 19:32:56;;;;;;;;;74.25;60.50;;;;;;;;6486725;46;8963;-59
2023/02/17 19:39:38;;;;;;;;;64.25;53.75;;;;;;;;6486581;46;8904;-58
2023/02/17 19:46:33;;;;;;;;;69.75;56.25;;;;;;;;6487351;46;8970;-58
2023/02/17 19:52:55;;;;;;;;;64.75;52.50;;;;;;;;6487339;39;9660;-61
2023/02/17 19:59:54;;;;;;;;;61.50;51.50;;;;;;;;6487647;46;8918;-59
2023/02/17 20:06:24;;;;;;;;;55.25;47.00;;;;;;;;6487096;39;8947;-59
2023/02/17 20:12:58;;;;;;;;;59.75;50.75;;;;;;;;6486542;39;9621;-61
2023/02/17 20:19:20;;;;;;;;;57.75;45.50;;;;;;;;6486233;39;9544;-60
2023/02/17 20:25:45;;;;;;;;;60.00;51.75;;;;;;;;6487032;39;8930;-59
2023/02/17 20:32:41;;;;;;;;;55.75;49.00;;;;;;;;6486160;46;8924;-58
2023/02/17 20:38:51;;;;;;;;;61.25;52.75;;;;;;;;6486801;31;10043;-58
2023/02/17 20:44:59;;;;;;;;;63.25;52.25;;;;;;;;6486460;31;8980;-60
2023/02/17 20:51:56;;;;;;;;;62.75;49.25;;;;;;;;6486878;39;8911;-59
2023/02/17 20:58:11;;;;;;;;;64.75;54.00;;;;;;;;6485704;31;8915;-59
2023/02/17 21:04:41;;;;;;;;;72.25;56.00;;;;;;;;6487538;39;9120;-60
2023/02/17 21:10:57;;;;;;;;;70.00;55.75;;;;;;;;6485659;46;8861;-59
2023/02/17 21:17:09;;;;;;;;;70.00;54.25;;;;;;;;6487335;46;9080;-59
2023/02/17 21:23:47;;;;;;;;;67.00;55.50;;;;;;;;6486267;39;8937;-59
2023/02/17 21:30:24;;;;;;;;;68.50;53.00;;;;;;;;6487115;31;8893;-59
2023/02/17 21:49:32;;;;;;;;;48.50;45.75;;;;;;;;6486416;39;8903;-60
2023/02/17 21:56:05;;;;;;;;;62.25;52.50;;;;;;;;6486947;31;9074;-58
2023/02/17 22:02:47;;;;;;;;;57.50;49.00;;;;;;;;6486250;39;8923;-59
2023/02/17 22:09:23;;;;;;;;;65.50;51.75;;;;;;;;6485523;39;9052;-56
2023/02/17 22:15:58;;;;;;;;;62.50;49.00;;;;;;;;6485501;46;8956;-59
2023/02/17 22:22:20;;;;;;;;;75.50;58.50;;;;;;;;6485551;47;8982;-59
2023/02/17 22:28:41;;;;;;;;;57.25;48.75;;;;;;;;6485780;39;8903;-59
2023/02/17 22:35:13;;;;;;;;;61.00;49.00;;;;;;;;6486549;39;9710;-59
2023/02/17 22:41:27;;;;;;;;;63.25;50.50;;;;;;;;6487438;31;8896;-58
2023/02/17 22:47:41;;;;;;;;;57.75;47.75;;;;;;;;6484920;47;8903;-59
2023/02/17 22:54:10;;;;;;;;;55.50;45.00;;;;;;;;6486473;39;8948;-60
2023/02/17 23:00:23;;;;;;;;;50.75;43.75;;;;;;;;6488369;39;8875;-59
2023/02/17 23:06:41;;;;;;;;;56.75;47.25;;;;;;;;6487183;31;8991;-58
2023/02/17 23:13:01;;;;;;;;;51.67;45.00;;;;;;;;6487392;39;9053;-58
2023/02/17 23:19:13;;;;;;;;;54.75;45.00;;;;;;;;6487102;39;8872;-58
2023/02/17 23:25:22;;;;;;;;;63.00;49.50;;;;;;;;6488251;31;9082;-58
2023/02/17 23:31:45;;;;;;;;;50.50;43.50;;;;;;;;6487402;39;8959;-59
2023/02/17 23:38:19;;;;;;;;;56.25;46.00;;;;;;;;6486727;46;9062;-58
2023/02/17 23:44:44;;;;;;;;;44.25;41.50;;;;;;;;6487295;39;8871;-58
2023/02/17 23:51:05;;;;;;;;;48.75;43.50;;;;;;;;6501954;36;8892;-60
2023/02/17 23:57:12;;;;;;;;;50.75;43.75;;;;;;;;6488534;39;8966;-58
